CHH7606 ZBAA-ZSSS
Flight info
| Callsign | CHH7606 |
|---|---|
| Flight time | N/A |
| Altitude | 34100 |
| Route | SASAN W161 VMB A593 DALIM W157 AVBOX |
| Aircraft | B738/M-SDE2E3FGILRWXY/LB2 |
Departure
| Time | N/A |
|---|---|
| Airport | Beijing Capital International Airport (ZBAA) |
Arrival
| Time | 2026-05-05 05:06 |
|---|---|
| Airport | Shanghai Hongqiao International Airport (ZSSS) |
| Time | Latitude | Longitude | Altitude | Speed | Heading |
|---|---|---|---|---|---|
| 2026-05-05 05:06 | 31.19594 | 121.32533 | 18 ft | 0 kts | 267° |
| 2026-05-05 05:20 | 31.19594 | 121.32542 | 47 ft | 3 kts | 267° |
| 2026-05-05 05:20 | 31.19595 | 121.32566 | 36 ft | 3 kts | 267° |
| 2026-05-05 05:20 | 31.19596 | 121.32590 | 22 ft | 3 kts | 267° |
| 2026-05-05 05:20 | 31.19597 | 121.32613 | 22 ft | 3 kts | 267° |
| 2026-05-05 05:21 | 31.19598 | 121.32633 | 22 ft | 3 kts | 255° |
| 2026-05-05 05:21 | 31.19606 | 121.32653 | 20 ft | 3 kts | 222° |
| 2026-05-05 05:21 | 31.19623 | 121.32664 | 21 ft | 3 kts | 197° |
| 2026-05-05 05:21 | 31.19640 | 121.32669 | 18 ft | 1 kts | 184° |
| 2026-05-05 05:22 | 31.19647 | 121.32669 | 20 ft | 0 kts | 183° |
| 2026-05-05 05:24 | 31.19628 | 121.32668 | 19 ft | 8 kts | 183° |
| 2026-05-05 05:24 | 31.19574 | 121.32736 | 18 ft | 19 kts | 88° |
| 2026-05-05 05:24 | 31.19582 | 121.32933 | 20 ft | 28 kts | 86° |
| 2026-05-05 05:24 | 31.19608 | 121.33060 | 19 ft | 13 kts | 36° |
| 2026-05-05 05:25 | 31.19708 | 121.33062 | 18 ft | 22 kts | 357° |
| 2026-05-05 05:25 | 31.19906 | 121.33051 | 18 ft | 32 kts | 357° |
| 2026-05-05 05:25 | 31.20129 | 121.33039 | 19 ft | 30 kts | 357° |
| 2026-05-05 05:25 | 31.20328 | 121.33027 | 19 ft | 28 kts | 357° |
| 2026-05-05 05:26 | 31.20518 | 121.33019 | 18 ft | 26 kts | 358° |
| 2026-05-05 05:26 | 31.20695 | 121.33010 | 18 ft | 25 kts | 358° |
| 2026-05-05 05:26 | 31.20859 | 121.33000 | 18 ft | 23 kts | 356° |
| 2026-05-05 05:26 | 31.21049 | 121.32989 | 18 ft | 28 kts | 357° |
| 2026-05-05 05:27 | 31.21144 | 121.33016 | 17 ft | 12 kts | 58° |
| 2026-05-05 05:27 | 31.21025 | 121.33181 | 16 ft | 23 kts | 177° |
| 2026-05-05 05:28 | 31.20620 | 121.33204 | 18 ft | 93 kts | 177° |
| 2026-05-05 05:28 | 31.19763 | 121.33250 | 20 ft | 151 kts | 177° |
| 2026-05-05 05:28 | 31.18586 | 121.33313 | 273 ft | 181 kts | 178° |
| 2026-05-05 05:28 | 31.17239 | 121.33389 | 922 ft | 206 kts | 176° |
| 2026-05-05 05:29 | 31.15816 | 121.33453 | 1474 ft | 207 kts | 176° |
| 2026-05-05 05:29 | 31.14355 | 121.33518 | 2040 ft | 204 kts | 177° |
| 2026-05-05 05:29 | 31.12945 | 121.33583 | 2655 ft | 202 kts | 177° |
| 2026-05-05 05:29 | 31.11616 | 121.33645 | 3201 ft | 201 kts | 177° |
| 2026-05-05 05:30 | 31.10231 | 121.33715 | 3777 ft | 199 kts | 177° |
| 2026-05-05 05:30 | 31.08851 | 121.33785 | 4361 ft | 197 kts | 177° |
| 2026-05-05 05:30 | 31.07500 | 121.33713 | 4918 ft | 196 kts | 195° |
| 2026-05-05 05:30 | 31.06260 | 121.33129 | 5395 ft | 201 kts | 209° |
| 2026-05-05 05:31 | 31.05161 | 121.32083 | 5837 ft | 206 kts | 229° |
| 2026-05-05 05:31 | 31.04422 | 121.30602 | 6270 ft | 217 kts | 249° |
| 2026-05-05 05:31 | 31.04142 | 121.28844 | 6733 ft | 227 kts | 271° |
| 2026-05-05 05:31 | 31.04362 | 121.26989 | 7216 ft | 236 kts | 279° |
| 2026-05-05 05:32 | 31.04707 | 121.25071 | 7684 ft | 247 kts | 281° |
| 2026-05-05 05:32 | 31.05085 | 121.23068 | 8167 ft | 260 kts | 282° |
| 2026-05-05 05:32 | 31.05483 | 121.20969 | 8631 ft | 266 kts | 281° |
| 2026-05-05 05:32 | 31.05879 | 121.18838 | 9097 ft | 267 kts | 281° |
| 2026-05-05 05:33 | 31.06264 | 121.16738 | 9552 ft | 266 kts | 281° |
| 2026-05-05 05:33 | 31.06833 | 121.14677 | 9991 ft | 268 kts | 300° |
| 2026-05-05 05:33 | 31.08117 | 121.13128 | 10416 ft | 270 kts | 327° |
| 2026-05-05 05:33 | 31.09910 | 121.12387 | 10858 ft | 278 kts | 351° |
| 2026-05-05 05:34 | 31.11846 | 121.12239 | 11326 ft | 285 kts | 355° |
| 2026-05-05 05:34 | 31.13853 | 121.12154 | 11786 ft | 293 kts | 355° |
| 2026-05-05 05:34 | 31.15946 | 121.12063 | 12220 ft | 308 kts | 355° |
| 2026-05-05 05:34 | 31.18139 | 121.11959 | 12644 ft | 322 kts | 355° |
| 2026-05-05 05:35 | 31.20418 | 121.11836 | 13082 ft | 336 kts | 354° |
| 2026-05-05 05:35 | 31.22820 | 121.11700 | 13513 ft | 350 kts | 354° |
| 2026-05-05 05:35 | 31.25297 | 121.11559 | 13935 ft | 363 kts | 354° |
| 2026-05-05 05:35 | 31.27849 | 121.11414 | 14320 ft | 375 kts | 354° |
| 2026-05-05 05:36 | 31.30460 | 121.11251 | 14697 ft | 385 kts | 352° |
| 2026-05-05 05:36 | 31.33050 | 121.10429 | 15066 ft | 390 kts | 331° |
| 2026-05-05 05:36 | 31.35237 | 121.08557 | 15468 ft | 393 kts | 311° |
| 2026-05-05 05:36 | 31.36801 | 121.05928 | 15861 ft | 398 kts | 294° |
| 2026-05-05 05:37 | 31.37843 | 121.02925 | 16278 ft | 402 kts | 289° |
| 2026-05-05 05:37 | 31.38770 | 120.99808 | 16676 ft | 406 kts | 287° |
| 2026-05-05 05:37 | 31.39660 | 120.96669 | 17080 ft | 408 kts | 287° |
| 2026-05-05 05:37 | 31.40569 | 120.93470 | 17496 ft | 409 kts | 287° |
| 2026-05-05 05:38 | 31.41483 | 120.90314 | 17916 ft | 410 kts | 288° |
| 2026-05-05 05:38 | 31.42339 | 120.87409 | 18303 ft | 411 kts | 288° |
| 2026-05-05 05:38 | 31.43283 | 120.84244 | 18674 ft | 413 kts | 288° |
| 2026-05-05 05:38 | 31.44235 | 120.81074 | 19039 ft | 414 kts | 288° |
| 2026-05-05 05:39 | 31.45194 | 120.77889 | 19410 ft | 415 kts | 288° |
| 2026-05-05 05:39 | 31.46121 | 120.74815 | 19791 ft | 417 kts | 288° |
| 2026-05-05 05:39 | 31.47085 | 120.71611 | 20170 ft | 419 kts | 288° |
| 2026-05-05 05:39 | 31.48058 | 120.68375 | 20573 ft | 423 kts | 288° |
| 2026-05-05 05:40 | 31.49040 | 120.65107 | 20971 ft | 427 kts | 288° |
| 2026-05-05 05:40 | 31.50030 | 120.61811 | 21384 ft | 430 kts | 288° |
| 2026-05-05 05:40 | 31.51021 | 120.58504 | 21796 ft | 433 kts | 288° |
| 2026-05-05 05:40 | 31.52020 | 120.55166 | 22211 ft | 435 kts | 288° |
| 2026-05-05 05:41 | 31.53023 | 120.51812 | 22630 ft | 437 kts | 288° |
| 2026-05-05 05:41 | 31.54030 | 120.48444 | 23052 ft | 438 kts | 288° |
| 2026-05-05 05:41 | 31.55040 | 120.45060 | 23491 ft | 440 kts | 288° |
| 2026-05-05 05:41 | 31.56055 | 120.41654 | 23870 ft | 442 kts | 288° |
| 2026-05-05 05:42 | 31.57065 | 120.38267 | 24235 ft | 443 kts | 288° |
| 2026-05-05 05:42 | 31.58097 | 120.34896 | 24606 ft | 444 kts | 292° |
| 2026-05-05 05:42 | 31.59687 | 120.31782 | 24964 ft | 447 kts | 307° |
| 2026-05-05 05:42 | 31.62007 | 120.29199 | 25359 ft | 451 kts | 321° |
| 2026-05-05 05:43 | 31.64570 | 120.27103 | 25757 ft | 448 kts | 323° |
| 2026-05-05 05:43 | 31.67120 | 120.25083 | 26124 ft | 436 kts | 323° |
| 2026-05-05 05:43 | 31.69595 | 120.23096 | 26515 ft | 429 kts | 322° |
| 2026-05-05 05:43 | 31.72029 | 120.21094 | 26909 ft | 424 kts | 322° |
| 2026-05-05 05:44 | 31.74434 | 120.19091 | 27318 ft | 422 kts | 322° |
| 2026-05-05 05:44 | 31.76811 | 120.17077 | 27732 ft | 421 kts | 321° |
| 2026-05-05 05:44 | 31.79167 | 120.15058 | 28151 ft | 420 kts | 321° |
| 2026-05-05 05:44 | 31.81527 | 120.13028 | 28571 ft | 418 kts | 321° |
| 2026-05-05 05:45 | 31.83868 | 120.11016 | 29004 ft | 417 kts | 321° |
| 2026-05-05 05:45 | 31.86209 | 120.09006 | 29440 ft | 415 kts | 321° |
| 2026-05-05 05:45 | 31.88538 | 120.07007 | 29884 ft | 414 kts | 321° |
| 2026-05-05 05:45 | 31.90862 | 120.05014 | 30289 ft | 412 kts | 321° |
| 2026-05-05 05:46 | 31.93177 | 120.03027 | 30661 ft | 411 kts | 320° |
| 2026-05-05 05:46 | 31.95483 | 120.01049 | 31041 ft | 409 kts | 320° |
| 2026-05-05 05:46 | 31.97783 | 119.99074 | 31425 ft | 408 kts | 320° |
| 2026-05-05 05:46 | 32.00075 | 119.97105 | 31812 ft | 407 kts | 320° |
| 2026-05-05 05:47 | 32.02329 | 119.95166 | 32209 ft | 406 kts | 320° |
| 2026-05-05 05:47 | 32.04634 | 119.93182 | 32618 ft | 405 kts | 320° |
| 2026-05-05 05:47 | 32.06877 | 119.91264 | 33024 ft | 404 kts | 320° |
| 2026-05-05 05:47 | 32.09152 | 119.89327 | 33442 ft | 402 kts | 320° |
| 2026-05-05 05:48 | 32.11418 | 119.87399 | 33863 ft | 400 kts | 320° |
| 2026-05-05 05:48 | 32.13676 | 119.85476 | 34090 ft | 403 kts | 320° |
| 2026-05-05 05:48 | 32.18287 | 119.81540 | 34093 ft | 413 kts | 320° |
| 2026-05-05 05:49 | 32.22945 | 119.77564 | 34090 ft | 411 kts | 320° |
| 2026-05-05 05:49 | 32.27575 | 119.73610 | 34089 ft | 410 kts | 320° |
| 2026-05-05 05:50 | 32.32184 | 119.69682 | 34091 ft | 408 kts | 320° |
| 2026-05-05 05:50 | 32.36776 | 119.65766 | 34082 ft | 406 kts | 320° |
| 2026-05-05 05:51 | 32.40582 | 119.62518 | 34088 ft | 405 kts | 320° |
| 2026-05-05 05:51 | 32.45889 | 119.57980 | 34082 ft | 404 kts | 320° |
| 2026-05-05 05:52 | 32.49697 | 119.54703 | 34084 ft | 404 kts | 320° |
| 2026-05-05 05:52 | 32.54239 | 119.50773 | 34082 ft | 404 kts | 320° |
| 2026-05-05 05:53 | 32.58777 | 119.46844 | 34077 ft | 404 kts | 321° |
| 2026-05-05 05:53 | 32.63323 | 119.42907 | 34081 ft | 405 kts | 321° |
| 2026-05-05 05:54 | 32.67842 | 119.38990 | 34079 ft | 405 kts | 321° |
| 2026-05-05 05:54 | 32.72397 | 119.35036 | 34076 ft | 405 kts | 321° |
| 2026-05-05 05:55 | 32.76951 | 119.31079 | 34072 ft | 406 kts | 321° |
| 2026-05-05 05:55 | 32.81508 | 119.27114 | 34071 ft | 405 kts | 321° |
| 2026-05-05 05:56 | 32.86055 | 119.23154 | 34071 ft | 405 kts | 321° |
| 2026-05-05 05:56 | 32.90591 | 119.19199 | 34069 ft | 405 kts | 321° |
| 2026-05-05 05:57 | 32.95143 | 119.15226 | 34067 ft | 405 kts | 322° |
| 2026-05-05 05:57 | 32.99696 | 119.11301 | 34056 ft | 404 kts | 322° |
| 2026-05-05 05:58 | 33.04252 | 119.07384 | 34057 ft | 403 kts | 322° |
| 2026-05-05 05:58 | 33.08793 | 119.03469 | 34055 ft | 402 kts | 322° |
| 2026-05-05 05:59 | 33.13328 | 118.99554 | 34053 ft | 401 kts | 322° |
| 2026-05-05 05:59 | 33.17811 | 118.95678 | 34043 ft | 400 kts | 322° |
| 2026-05-05 06:00 | 33.22310 | 118.91771 | 34043 ft | 400 kts | 322° |
| 2026-05-05 06:00 | 33.26794 | 118.87852 | 34037 ft | 399 kts | 322° |
| 2026-05-05 06:01 | 33.31271 | 118.83943 | 34044 ft | 399 kts | 322° |
| 2026-05-05 06:01 | 33.35768 | 118.80049 | 34042 ft | 401 kts | 323° |
| 2026-05-05 06:02 | 33.40289 | 118.76136 | 34037 ft | 402 kts | 323° |
| 2026-05-05 06:02 | 33.44825 | 118.72200 | 34033 ft | 403 kts | 323° |